createdAt,value
2023-10-06T00:01:22.473Z,97475.03
2023-10-06T00:03:58.662Z,97476.47
2023-10-06T00:06:28.680Z,97473.00
2023-10-06T00:08:58.329Z,97489.41
2023-10-06T00:11:32.839Z,97479.06
2023-10-06T00:14:05.730Z,97483.47
2023-10-06T00:16:40.597Z,97484.59
2023-10-06T00:19:27.916Z,97479.34
2023-10-06T00:22:11.172Z,97477.53
2023-10-06T00:24:42.760Z,97484.84
2023-10-06T00:27:12.713Z,97481.13
2023-10-06T00:29:48.757Z,97472.84
2023-10-06T00:32:28.014Z,97473.97
2023-10-06T00:35:12.389Z,97480.84
2023-10-06T00:37:42.017Z,97481.84
2023-10-06T00:40:20.678Z,97481.25
2023-10-06T00:42:53.288Z,97476.13
2023-10-06T00:45:25.716Z,97478.75
2023-10-06T00:47:55.407Z,97473.81
2023-10-06T00:50:25.882Z,97473.94
2023-10-06T00:52:57.116Z,97465.97
2023-10-06T00:55:27.539Z,97467.09
2023-10-06T00:57:56.238Z,97468.56
2023-10-06T01:00:26.283Z,97466.09
2023-10-06T01:02:55.024Z,97459.34
2023-10-06T01:05:26.731Z,97450.81
2023-10-06T01:07:55.782Z,97451.09
2023-10-06T01:10:29.595Z,97448.34
2023-10-06T01:12:58.747Z,97455.22
2023-10-06T01:15:30.997Z,97450.69
2023-10-06T01:18:00.591Z,97453.88
2023-10-06T01:20:35.510Z,97446.16
2023-10-06T01:23:20.838Z,97446.81
2023-10-06T01:25:54.617Z,97441.59
2023-10-06T01:28:24.766Z,97437.03
2023-10-06T01:30:53.993Z,97434.56
2023-10-06T01:33:23.162Z,97432.38
2023-10-06T01:35:51.886Z,97433.34
2023-10-06T01:38:24.011Z,97434.31
2023-10-06T01:40:54.628Z,97434.84
2023-10-06T01:43:31.157Z,97435.56
2023-10-06T01:46:00.761Z,97430.19
2023-10-06T01:48:31.818Z,97425.75
2023-10-06T01:51:00.571Z,97428.22
2023-10-06T01:53:34.993Z,97425.09
2023-10-06T01:56:08.359Z,97430.84
2023-10-06T01:58:39.172Z,97424.94
2023-10-06T02:01:08.452Z,97438.03
2023-10-06T02:03:41.780Z,97420.94
2023-10-06T02:06:17.586Z,97430.47
2023-10-06T02:08:53.838Z,97429.06
2023-10-06T02:11:31.955Z,97427.16
2023-10-06T02:14:00.838Z,97433.50
2023-10-06T02:16:29.759Z,97432.94
2023-10-06T02:18:58.449Z,97432.53
2023-10-06T02:21:30.028Z,97428.66
2023-10-06T02:24:04.842Z,97431.00
2023-10-06T02:26:37.460Z,97423.03
2023-10-06T02:29:16.862Z,97418.91
2023-10-06T02:31:45.565Z,97415.03
2023-10-06T02:34:22.511Z,97409.00
2023-10-06T02:36:51.701Z,97411.75
2023-10-06T02:39:22.308Z,97415.84
2023-10-06T02:41:54.323Z,97411.91
2023-10-06T02:44:24.277Z,97415.31
2023-10-06T02:46:53.590Z,97424.13
2023-10-06T02:49:33.160Z,97424.13
2023-10-06T02:52:06.355Z,97412.56
2023-10-06T02:54:45.832Z,97411.06
2023-10-06T02:57:21.267Z,97413.53
2023-10-06T02:59:50.319Z,97421.94
2023-10-06T03:02:21.262Z,97419.88
2023-10-06T03:04:56.528Z,97422.50
2023-10-06T03:07:25.202Z,97417.25
2023-10-06T03:09:55.272Z,97418.50
2023-10-06T03:12:32.880Z,97418.78
2023-10-06T03:15:02.407Z,97420.59
2023-10-06T03:17:31.871Z,97423.88
2023-10-06T03:20:11.245Z,97416.72
2023-10-06T03:22:41.791Z,97409.28
2023-10-06T03:25:17.099Z,97409.69
2023-10-06T03:27:47.885Z,97412.84
2023-10-06T03:30:28.049Z,97414.22
2023-10-06T03:32:59.161Z,97424.53
2023-10-06T03:35:37.768Z,97426.78
2023-10-06T03:38:28.858Z,97430.75
2023-10-06T03:41:14.432Z,97434.06
2023-10-06T03:43:49.196Z,97422.50
2023-10-06T03:46:20.272Z,97422.06
2023-10-06T03:48:53.276Z,97426.91
2023-10-06T03:51:22.870Z,97434.75
2023-10-06T03:53:51.717Z,97421.09
2023-10-06T03:56:22.754Z,97423.84
2023-10-06T03:58:54.642Z,97426.22
2023-10-06T04:01:27.914Z,97432.97
2023-10-06T04:03:59.738Z,97428.69
2023-10-06T04:06:29.268Z,97434.63
2023-10-06T04:09:00.770Z,97435.28
2023-10-06T04:11:31.595Z,97423.75
2023-10-06T04:14:00.694Z,97428.00
2023-10-06T04:16:34.033Z,97418.53
2023-10-06T04:19:04.623Z,97415.63
2023-10-06T04:21:37.159Z,97415.78
2023-10-06T04:24:07.678Z,97419.47
2023-10-06T04:26:40.961Z,97423.19
2023-10-06T04:29:14.709Z,97408.34
2023-10-06T04:31:44.111Z,97405.03
2023-10-06T04:34:13.018Z,97403.22
2023-10-06T04:36:42.107Z,97401.59
2023-10-06T04:39:12.638Z,97412.75
2023-10-06T04:41:42.703Z,97400.91
2023-10-06T04:44:11.742Z,97403.22
2023-10-06T04:46:40.963Z,97404.47
2023-10-06T04:49:09.981Z,97393.34
2023-10-06T04:51:39.238Z,97395.38
2023-10-06T04:54:09.598Z,97392.91
2023-10-06T04:56:38.509Z,97389.91
2023-10-06T04:59:12.527Z,97391.28
2023-10-06T05:01:41.692Z,97394.16
2023-10-06T05:04:10.486Z,97396.94
2023-10-06T05:06:39.315Z,97398.84
2023-10-06T05:09:10.968Z,97396.50
2023-10-06T05:11:39.741Z,97389.63
2023-10-06T05:14:10.618Z,97388.66
2023-10-06T05:16:39.581Z,97391.97
2023-10-06T05:19:09.256Z,97385.38
2023-10-06T05:21:38.482Z,97380.13
2023-10-06T05:24:09.948Z,97383.69
2023-10-06T05:26:38.725Z,97385.38
2023-10-06T05:29:11.034Z,97368.88
2023-10-06T05:31:41.506Z,97372.72
2023-10-06T05:34:11.865Z,97368.56
2023-10-06T05:36:40.531Z,97379.75
2023-10-06T05:39:12.914Z,97382.22
2023-10-06T05:41:45.540Z,97389.34
2023-10-06T05:44:15.168Z,97375.88
2023-10-06T05:46:45.288Z,97367.75
2023-10-06T05:49:13.912Z,97359.09
2023-10-06T05:51:45.102Z,97370.25
2023-10-06T05:54:22.892Z,97382.34
2023-10-06T05:56:54.363Z,97390.06
2023-10-06T05:59:23.197Z,97390.75
2023-10-06T06:01:57.544Z,97398.72
2023-10-06T06:04:28.753Z,97403.94
2023-10-06T06:06:58.870Z,97407.25
2023-10-06T06:09:28.881Z,97410.81
2023-10-06T06:11:59.498Z,97418.66
2023-10-06T06:14:28.308Z,97421.41
2023-10-06T06:16:58.491Z,97409.19
2023-10-06T06:19:27.200Z,97409.19
2023-10-06T06:21:55.807Z,97408.63
2023-10-06T06:24:24.472Z,97397.06
2023-10-06T06:26:53.139Z,97405.03
2023-10-06T06:29:22.053Z,97405.88
2023-10-06T06:31:54.114Z,97410.13
2023-10-06T06:34:24.286Z,97417.56
2023-10-06T06:36:52.953Z,97415.50
2023-10-06T06:39:24.274Z,97427.34
2023-10-06T06:41:54.724Z,97426.63
2023-10-06T06:44:27.160Z,97425.09
2023-10-06T06:46:56.168Z,97418.25
2023-10-06T06:49:28.036Z,97417.69
2023-10-06T06:51:59.890Z,97420.16
2023-10-06T06:54:28.613Z,97421.69
2023-10-06T06:56:57.288Z,97421.81
2023-10-06T06:59:27.080Z,97433.66
2023-10-06T07:01:55.781Z,97433.22
2023-10-06T07:04:27.368Z,97441.09
2023-10-06T07:06:57.512Z,97445.63
2023-10-06T07:09:26.282Z,97447.41
2023-10-06T07:11:56.081Z,97440.94
2023-10-06T07:14:24.848Z,97436.66
2023-10-06T07:16:53.609Z,97448.91
2023-10-06T07:19:22.804Z,97445.63
2023-10-06T07:21:52.157Z,97452.38
2023-10-06T07:24:22.206Z,97448.63
2023-10-06T07:26:51.421Z,97450.72
2023-10-06T07:29:20.083Z,97447.69
2023-10-06T07:31:49.992Z,97446.03
2023-10-06T07:34:20.056Z,97450.84
2023-10-06T07:36:48.710Z,97445.47
2023-10-06T07:39:22.019Z,97450.84
2023-10-06T07:41:52.306Z,97453.31
2023-10-06T07:44:22.178Z,97460.75
2023-10-06T07:46:53.675Z,97457.19
2023-10-06T07:49:22.882Z,97451.41
2023-10-06T07:51:51.517Z,97448.38
2023-10-06T07:54:20.224Z,97450.84
2023-10-06T07:56:48.865Z,97452.22
2023-10-06T07:59:18.946Z,97460.75
2023-10-06T08:01:49.718Z,97453.47
2023-10-06T08:04:18.537Z,97450.59
2023-10-06T08:06:47.422Z,97447.81
2023-10-06T08:09:18.394Z,97441.50
2023-10-06T08:11:47.106Z,97444.78
2023-10-06T08:14:15.929Z,97448.22
2023-10-06T08:16:47.126Z,97450.69
2023-10-06T08:19:15.824Z,97447.81
2023-10-06T08:21:44.574Z,97441.47
2023-10-06T08:24:13.793Z,97439.69
2023-10-06T08:26:42.649Z,97439.53
2023-10-06T08:29:11.398Z,97438.59
2023-10-06T08:31:40.351Z,97441.88
2023-10-06T08:34:13.127Z,97441.72
2023-10-06T08:36:42.877Z,97432.94
2023-10-06T08:39:14.626Z,97438.84
2023-10-06T08:41:47.148Z,97439.69
2023-10-06T08:44:17.107Z,97429.09
2023-10-06T08:46:46.063Z,97424.38
2023-10-06T08:49:20.437Z,97425.09
2023-10-06T08:51:51.712Z,97437.03
2023-10-06T08:54:21.195Z,97432.66
2023-10-06T08:56:50.628Z,97425.47
2023-10-06T08:59:21.439Z,97425.34
2023-10-06T09:01:50.400Z,97430.44
2023-10-06T09:04:22.395Z,97430.16
2023-10-06T09:07:14.261Z,97428.09
2023-10-06T09:09:44.426Z,97428.09
2023-10-06T09:12:25.009Z,97430.84
2023-10-06T09:14:55.688Z,97425.59
2023-10-06T09:17:34.827Z,97414.03
2023-10-06T09:20:13.418Z,97414.84
2023-10-06T09:22:51.250Z,97408.53
2023-10-06T09:25:22.491Z,97408.66
2023-10-06T09:28:03.085Z,97404.09
2023-10-06T09:30:32.295Z,97404.81
2023-10-06T09:33:06.011Z,97407.56
2023-10-06T09:35:36.251Z,97403.81
2023-10-06T09:38:14.933Z,97400.25
2023-10-06T09:40:45.167Z,97408.09
2023-10-06T09:43:18.286Z,97404.22
2023-10-06T09:45:49.498Z,97405.88
2023-10-06T09:48:27.367Z,97406.69
2023-10-06T09:50:58.931Z,97399.53
2023-10-06T09:53:29.318Z,97401.84
2023-10-06T09:55:59.361Z,97408.75
2023-10-06T09:58:30.059Z,97398.13
2023-10-06T10:01:00.865Z,97402.56
2023-10-06T10:03:30.815Z,97401.41
2023-10-06T10:06:05.587Z,97397.03
2023-10-06T10:08:35.522Z,97405.53
2023-10-06T10:11:08.541Z,97398.78
2023-10-06T10:13:52.047Z,97406.38
2023-10-06T10:16:38.051Z,97396.88
2023-10-06T10:19:12.273Z,97400.16
2023-10-06T10:21:44.281Z,97398.38
2023-10-06T10:24:53.240Z,97394.78
2023-10-06T10:27:14.200Z,97391.22
2023-10-06T10:29:43.362Z,97390.06
2023-10-06T10:32:16.493Z,97394.22
2023-10-06T10:35:08.410Z,97392.53
2023-10-06T10:38:04.288Z,97386.34
2023-10-06T10:40:48.506Z,97386.06
2023-10-06T10:43:17.976Z,97379.88
2023-10-06T10:45:49.261Z,97367.59
2023-10-06T10:48:19.723Z,97364.66
2023-10-06T10:51:03.130Z,97375.28
2023-10-06T10:53:36.459Z,97374.47
2023-10-06T10:56:08.117Z,97369.38
2023-10-06T10:58:59.247Z,97367.59
2023-10-06T11:01:31.187Z,97366.78
2023-10-06T11:04:30.769Z,97363.44
2023-10-06T11:07:05.915Z,97355.75
2023-10-06T11:09:41.724Z,97350.34
2023-10-06T11:12:26.186Z,97343.50
2023-10-06T11:15:04.017Z,97345.41
2023-10-06T11:17:34.376Z,97341.97
2023-10-06T11:20:14.833Z,97345.28
2023-10-06T11:22:54.989Z,97341.97
2023-10-06T11:25:28.781Z,97337.56
2023-10-06T11:27:58.823Z,97342.81
2023-10-06T11:30:29.761Z,97345.41
2023-10-06T11:32:59.292Z,97339.22
2023-10-06T11:35:28.244Z,97337.41
2023-10-06T11:37:57.159Z,97337.41
2023-10-06T11:40:28.391Z,97331.38
2023-10-06T11:42:56.982Z,97326.13
2023-10-06T11:45:28.773Z,97316.47
2023-10-06T11:47:59.378Z,97307.13
2023-10-06T11:50:33.614Z,97313.19
2023-10-06T11:53:02.698Z,97307.94
2023-10-06T11:55:35.401Z,97307.13
2023-10-06T11:58:06.255Z,97308.91
2023-10-06T12:00:40.241Z,97304.50
2023-10-06T12:03:11.684Z,97305.47
2023-10-06T12:05:43.619Z,97307.13
2023-10-06T12:08:13.692Z,97295.53
2023-10-06T12:10:51.689Z,97303.06
2023-10-06T12:13:21.030Z,97297.44
2023-10-06T12:15:49.764Z,97297.13
2023-10-06T12:18:18.636Z,97298.59
2023-10-06T12:20:47.607Z,97302.88
2023-10-06T12:23:16.833Z,97291.44
2023-10-06T12:25:46.179Z,97292.25
2023-10-06T12:28:18.670Z,97300.13
2023-10-06T12:30:53.778Z,97300.13
2023-10-06T12:33:24.041Z,97297.50
2023-10-06T12:35:53.700Z,97294.06
2023-10-06T12:38:23.855Z,97287.84
2023-10-06T12:40:54.146Z,97289.94
2023-10-06T12:43:25.947Z,97293.81
2023-10-06T12:45:54.701Z,97290.97
2023-10-06T12:48:23.437Z,97282.56
2023-10-06T12:50:52.082Z,97284.38
2023-10-06T12:53:20.754Z,97282.56
2023-10-06T12:55:57.926Z,97284.53
2023-10-06T12:58:28.235Z,97281.91
2023-10-06T13:00:57.015Z,97285.50
2023-10-06T13:03:26.730Z,97275.16
2023-10-06T13:05:55.724Z,97265.53
2023-10-06T13:08:26.310Z,97270.63
2023-10-06T13:10:56.044Z,97268.00
2023-10-06T13:13:25.140Z,97263.72
2023-10-06T13:15:55.458Z,97264.53
2023-10-06T13:18:24.213Z,97271.13
2023-10-06T13:20:53.666Z,97273.94
2023-10-06T13:23:27.846Z,97270.91
2023-10-06T13:25:59.548Z,97263.38
2023-10-06T13:28:29.395Z,97272.66
2023-10-06T13:31:00.293Z,97269.34
2023-10-06T13:33:30.300Z,97271.16
2023-10-06T13:36:00.616Z,97269.34
2023-10-06T13:38:32.550Z,97275.44
2023-10-06T13:41:01.836Z,97273.63
2023-10-06T13:43:31.168Z,97281.03
2023-10-06T13:46:02.436Z,97277.59
2023-10-06T13:48:32.973Z,97276.09
2023-10-06T13:51:03.960Z,97274.28
2023-10-06T13:53:33.358Z,97264.66
2023-10-06T13:56:03.531Z,97270.03
2023-10-06T13:58:34.466Z,97265.63
2023-10-06T14:01:05.722Z,97262.19
2023-10-06T14:03:34.803Z,97263.97
2023-10-06T14:06:05.656Z,97261.34
2023-10-06T14:08:35.706Z,97266.59
2023-10-06T14:11:06.720Z,97261.34
2023-10-06T14:13:35.434Z,97262.19
2023-10-06T14:16:11.438Z,97258.56
2023-10-06T14:18:41.666Z,97254.19
2023-10-06T14:21:15.334Z,97255.16
2023-10-06T14:23:48.517Z,97251.56
2023-10-06T14:26:19.838Z,97246.84
2023-10-06T14:28:56.263Z,97249.50
2023-10-06T14:31:34.968Z,97252.53
2023-10-06T14:34:32.172Z,97246.97
2023-10-06T14:37:02.377Z,97254.69
2023-10-06T14:39:48.556Z,97242.78
2023-10-06T14:42:34.673Z,97246.06
2023-10-06T14:45:21.113Z,97247.56
2023-10-06T14:47:52.455Z,97248.06
2023-10-06T14:50:21.714Z,97238.66
2023-10-06T14:52:52.602Z,97245.56
2023-10-06T14:55:22.879Z,97237.41
2023-10-06T14:57:51.622Z,97245.09
2023-10-06T15:00:21.203Z,97240.53
2023-10-06T15:02:51.644Z,97229.47
2023-10-06T15:05:20.828Z,97229.69
2023-10-06T15:07:49.553Z,97230.44
2023-10-06T15:10:19.668Z,97230.94
2023-10-06T15:12:49.573Z,97229.00
2023-10-06T15:15:18.971Z,97236.56
2023-10-06T15:17:57.074Z,97232.16
2023-10-06T15:20:34.866Z,97228.69
2023-10-06T15:23:04.182Z,97232.16
2023-10-06T15:25:32.921Z,97233.94
2023-10-06T15:28:04.334Z,97231.31
2023-10-06T15:30:36.732Z,97232.31
2023-10-06T15:33:05.966Z,97236.56
2023-10-06T15:35:37.332Z,97231.31
2023-10-06T15:38:11.587Z,97233.13
2023-10-06T15:40:40.326Z,97234.09
2023-10-06T15:43:19.876Z,97230.66
2023-10-06T15:45:58.024Z,97243.91
2023-10-06T15:48:27.372Z,97236.84
2023-10-06T15:51:00.320Z,97224.78
2023-10-06T15:53:30.107Z,97224.00
2023-10-06T15:56:03.935Z,97228.69
2023-10-06T15:58:34.022Z,97235.22
2023-10-06T16:01:06.490Z,97226.91
2023-10-06T16:03:35.653Z,97226.59
2023-10-06T16:06:05.816Z,97244.25
2023-10-06T16:08:34.793Z,97240.31
2023-10-06T16:11:04.122Z,97239.47
2023-10-06T16:13:32.978Z,97238.50
2023-10-06T16:16:11.773Z,97238.81
2023-10-06T16:18:42.565Z,97238.97
2023-10-06T16:21:13.905Z,97231.25
2023-10-06T16:23:43.238Z,97230.50
2023-10-06T16:26:12.912Z,97238.50
2023-10-06T16:28:42.237Z,97232.91
2023-10-06T16:31:11.619Z,97232.38
2023-10-06T16:33:42.465Z,97222.34
2023-10-06T16:36:13.590Z,97227.75
2023-10-06T16:38:43.124Z,97228.03
2023-10-06T16:41:13.581Z,97222.00
2023-10-06T16:43:42.987Z,97224.06
2023-10-06T16:46:12.088Z,97219.00
2023-10-06T16:48:41.018Z,97225.22
2023-10-06T16:51:10.399Z,97223.56
2023-10-06T16:53:40.602Z,97228.00
2023-10-06T16:56:09.660Z,97226.34
2023-10-06T16:58:38.401Z,97226.47
2023-10-06T17:01:08.836Z,97229.09
2023-10-06T17:03:38.359Z,97229.25
2023-10-06T17:06:08.802Z,97238.06
2023-10-06T17:08:37.844Z,97241.69
2023-10-06T17:11:16.874Z,97246.09
2023-10-06T17:13:48.639Z,97250.50
2023-10-06T17:16:17.748Z,97252.47
2023-10-06T17:18:46.464Z,97253.44
2023-10-06T17:21:15.188Z,97260.47
2023-10-06T17:26:35.621Z,97253.56
2023-10-06T17:29:04.483Z,97259.78
2023-10-06T17:31:35.778Z,97250.28
2023-10-06T17:34:05.811Z,97256.50
2023-10-06T17:36:34.491Z,97253.06
2023-10-06T17:39:04.158Z,97259.25
2023-10-06T17:41:33.071Z,97255.78
2023-10-06T17:44:03.152Z,97260.22
2023-10-06T17:46:33.236Z,97258.72
2023-10-06T17:49:01.949Z,97257.75
2023-10-06T17:51:30.648Z,97255.28
2023-10-06T17:53:59.279Z,97257.91
2023-10-06T17:56:29.966Z,97251.84
2023-10-06T17:58:58.794Z,97251.00
2023-10-06T18:01:29.221Z,97252.81
2023-10-06T18:03:58.459Z,97243.44
2023-10-06T18:06:27.315Z,97248.69
2023-10-06T18:08:56.259Z,97247.06
2023-10-06T18:11:25.950Z,97245.25
2023-10-06T18:13:55.843Z,97246.22
2023-10-06T18:16:26.638Z,97243.59
2023-10-06T18:18:57.065Z,97247.06
2023-10-06T18:21:26.066Z,97248.84
2023-10-06T18:23:57.820Z,97241.13
2023-10-06T18:26:26.544Z,97248.16
2023-10-06T18:28:55.910Z,97242.94
2023-10-06T18:31:26.380Z,97238.66
2023-10-06T18:33:56.554Z,97239.66
2023-10-06T18:36:25.881Z,97232.63
2023-10-06T18:38:57.252Z,97240.75
2023-10-06T18:41:27.577Z,97236.34
2023-10-06T18:43:56.419Z,97240.09
2023-10-06T18:46:26.723Z,97247.09
2023-10-06T18:48:56.922Z,97252.34
2023-10-06T18:51:26.626Z,97251.81
2023-10-06T18:53:55.941Z,97248.53
2023-10-06T18:56:24.895Z,97246.06
2023-10-06T18:58:54.501Z,97247.03
2023-10-06T19:01:23.342Z,97253.38
2023-10-06T19:03:52.148Z,97252.72
2023-10-06T19:06:22.419Z,97252.41
2023-10-06T19:08:52.498Z,97247.63
2023-10-06T19:11:21.754Z,97239.78
2023-10-06T19:13:50.913Z,97253.00
2023-10-06T19:16:21.243Z,97249.53
2023-10-06T19:18:51.498Z,97246.13
2023-10-06T19:21:24.713Z,97252.31
2023-10-06T19:23:53.724Z,97249.19
2023-10-06T19:26:23.279Z,97242.97
2023-10-06T19:28:52.090Z,97242.84
2023-10-06T19:31:21.872Z,97246.13
2023-10-06T19:33:51.802Z,97248.38
2023-10-06T19:36:22.564Z,97245.59
2023-10-06T19:38:52.141Z,97244.75
2023-10-06T19:41:22.870Z,97250.00
2023-10-06T19:43:51.827Z,97252.47
2023-10-06T19:46:20.857Z,97252.47
2023-10-06T19:48:54.973Z,97251.78
2023-10-06T19:51:25.957Z,97254.56
2023-10-06T19:53:55.074Z,97261.44
2023-10-06T19:56:25.681Z,97260.91
2023-10-06T19:58:55.438Z,97259.13
2023-10-06T20:01:25.602Z,97262.69
2023-10-06T20:03:54.781Z,97258.44
2023-10-06T20:06:25.252Z,97256.81
2023-10-06T20:08:55.569Z,97256.94
2023-10-06T20:11:24.332Z,97254.72
2023-10-06T20:13:53.174Z,97255.84
2023-10-06T20:16:22.204Z,97254.19
2023-10-06T20:18:50.947Z,97256.13
2023-10-06T20:21:21.843Z,97258.59
2023-10-06T20:23:52.490Z,97271.53
2023-10-06T20:26:21.702Z,97268.53
2023-10-06T20:28:50.975Z,97271.69
2023-10-06T20:31:19.865Z,97275.41
2023-10-06T20:33:49.075Z,97267.69
2023-10-06T20:36:17.794Z,97261.81
2023-10-06T20:38:46.545Z,97263.31
2023-10-06T20:41:16.689Z,97273.88
2023-10-06T20:43:45.444Z,97275.13
2023-10-06T20:46:15.670Z,97282.28
2023-10-06T20:48:44.756Z,97279.25
2023-10-06T20:51:18.717Z,97261.34
2023-10-06T20:53:48.071Z,97264.78
2023-10-06T20:56:19.912Z,97269.72
2023-10-06T20:58:49.136Z,97262.84
2023-10-06T21:01:18.870Z,97266.28
2023-10-06T21:03:49.085Z,97256.81
2023-10-06T21:06:18.120Z,97263.38
2023-10-06T21:08:48.119Z,97251.97
2023-10-06T21:11:18.205Z,97264.78
2023-10-06T21:13:46.913Z,97255.56
2023-10-06T21:16:15.680Z,97255.03
2023-10-06T21:18:44.444Z,97246.91
2023-10-06T21:21:13.052Z,97241.69
2023-10-06T21:23:41.716Z,97247.63
2023-10-06T21:26:11.950Z,97252.59
2023-10-06T21:28:42.646Z,97254.97
2023-10-06T21:31:11.543Z,97244.34
2023-10-06T21:33:40.251Z,97268.03
2023-10-06T21:36:09.095Z,97265.44
2023-10-06T21:38:37.833Z,97268.34
2023-10-06T21:41:06.539Z,97255.25
2023-10-06T21:43:35.241Z,97249.88
2023-10-06T21:46:07.895Z,97255.41
2023-10-06T21:48:36.679Z,97265.16
2023-10-06T21:51:07.566Z,97258.59
2023-10-06T21:53:36.297Z,97256.78
2023-10-06T21:56:11.901Z,97267.38
2023-10-06T21:58:41.074Z,97265.59
2023-10-06T22:01:15.068Z,97264.78
2023-10-06T22:03:45.815Z,97265.88
2023-10-06T22:06:14.602Z,97259.03
2023-10-06T22:08:43.700Z,97242.34
2023-10-06T22:11:13.072Z,97252.94
2023-10-06T22:13:44.024Z,97255.69
2023-10-06T22:16:14.960Z,97260.13
2023-10-06T22:18:44.498Z,97262.88
2023-10-06T22:21:15.158Z,97257.78
2023-10-06T22:23:44.890Z,97257.78
2023-10-06T22:26:15.656Z,97252.00
2023-10-06T22:28:44.605Z,97253.66
2023-10-06T22:31:14.719Z,97244.31
2023-10-06T22:33:43.407Z,97237.16
2023-10-06T22:36:13.741Z,97229.31
2023-10-06T22:38:42.621Z,97243.06
2023-10-06T22:41:11.380Z,97239.00
2023-10-06T22:43:42.060Z,97235.44
2023-10-06T22:46:10.808Z,97232.97
2023-10-06T22:48:41.378Z,97238.34
2023-10-06T22:51:10.212Z,97225.69
2023-10-06T22:53:39.704Z,97231.44
2023-10-06T22:56:08.812Z,97228.69
2023-10-06T22:58:38.110Z,97225.78
2023-10-06T23:01:07.009Z,97231.72
2023-10-06T23:03:36.935Z,97223.72
2023-10-06T23:06:09.996Z,97214.00
2023-10-06T23:08:38.965Z,97211.59
2023-10-06T23:11:07.807Z,97203.38
2023-10-06T23:13:39.957Z,97208.63
2023-10-06T23:16:10.966Z,97203.41
2023-10-06T23:18:39.885Z,97208.34
2023-10-06T23:21:13.466Z,97209.19
2023-10-06T23:23:43.052Z,97217.31
2023-10-06T23:26:11.852Z,97212.25
2023-10-06T23:28:41.885Z,97213.56
2023-10-06T23:31:10.628Z,97220.59
2023-10-06T23:33:40.396Z,97208.63
2023-10-06T23:36:10.480Z,97208.13
2023-10-06T23:38:39.218Z,97207.97
2023-10-06T23:41:12.401Z,97206.88
2023-10-06T23:43:42.357Z,97208.41
2023-10-06T23:46:16.453Z,97204.41
2023-10-06T23:48:47.627Z,97210.44
2023-10-06T23:51:17.753Z,97204.28
2023-10-06T23:53:46.782Z,97206.47
2023-10-06T23:56:35.301Z,97197.53
2023-10-06T23:59:11.236Z,97191.63
